Time;durP1;ratioP1;P1;durP2;ratioP2;P2;SDS_P1;SDS_P2;PMS_P1;PMS_P2;Temp;Humidity;BMP_temperature;BMP_pressure;BME280_temperature;BME280_humidity;BME280_pressure;Samples;Min_cycle;Max_cycle;Signal;HPM_P1;HPM_P2
2023/11/08 00:02:21;;;;;;;1.90;0.82;;;12.10;71.40;;;;;;2129981;59;21435;-65
2023/11/08 00:04:47;;;;;;;2.33;0.90;;;12.10;71.40;;;;;;2331997;58;21019;-65
2023/11/08 00:07:14;;;;;;;3.05;1.05;;;12.10;71.40;;;;;;2132766;59;21049;-65
2023/11/08 00:09:43;;;;;;;4.35;1.20;;;12.10;71.50;;;;;;2337705;59;21081;-65
2023/11/08 00:12:10;;;;;;;3.40;1.33;;;12.10;71.40;;;;;;2333104;59;21049;-65
2023/11/08 00:14:40;;;;;;;3.45;1.40;;;12.10;71.40;;;;;;2131093;59;21081;-65
2023/11/08 00:17:08;;;;;;;2.33;1.00;;;12.10;71.40;;;;;;2130687;58;20938;-65
2023/11/08 00:19:34;;;;;;;2.80;1.00;;;12.10;71.50;;;;;;2130499;58;21540;-65
2023/11/08 00:22:04;;;;;;;4.28;1.37;;;12.10;71.70;;;;;;2129362;59;20997;-65
2023/11/08 00:24:31;;;;;;;3.53;1.15;;;12.10;71.70;;;;;;2137838;58;20985;-65
2023/11/08 00:26:57;;;;;;;3.78;1.42;;;12.10;71.70;;;;;;2130180;59;21057;-65
2023/11/08 00:29:23;;;;;;;2.33;1.12;;;12.10;71.70;;;;;;2134957;59;21110;-65
2023/11/08 00:31:53;;;;;;;3.40;1.20;;;12.10;71.70;;;;;;2334640;58;21443;-65
2023/11/08 00:34:20;;;;;;;2.33;0.95;;;12.10;71.70;;;;;;2331864;58;20994;-65
2023/11/08 00:36:46;;;;;;;2.10;1.02;;;12.10;71.70;;;;;;2331885;58;21058;-65
2023/11/08 00:39:15;;;;;;;3.12;1.15;;;12.10;71.70;;;;;;2134718;59;21062;-65
2023/11/08 00:41:45;;;;;;;4.53;1.27;;;12.10;71.70;;;;;;2134028;59;21069;-65
2023/11/08 00:44:12;;;;;;;2.92;0.95;;;12.10;71.60;;;;;;2130235;59;21489;-65
2023/11/08 00:46:40;;;;;;;2.35;1.00;;;12.10;71.50;;;;;;2138590;59;20997;-65
2023/11/08 00:49:06;;;;;;;3.37;1.02;;;12.10;71.50;;;;;;2130008;59;20990;-65
2023/11/08 00:51:34;;;;;;;2.65;1.10;;;12.10;71.40;;;;;;2331716;58;20993;-65
2023/11/08 00:54:03;;;;;;;2.45;0.85;;;12.10;71.40;;;;;;2129926;58;21825;-65
2023/11/08 00:56:30;;;;;;;1.80;0.73;;;12.10;71.40;;;;;;2130334;59;21575;-64
2023/11/08 00:58:57;;;;;;;2.75;0.88;;;12.10;71.40;;;;;;2332509;58;21001;-65
2023/11/08 01:01:24;;;;;;;2.53;0.90;;;12.10;71.40;;;;;;2331807;58;21011;-65
2023/11/08 01:03:50;;;;;;;3.12;0.80;;;12.10;71.40;;;;;;2130593;59;21009;-65
2023/11/08 01:06:18;;;;;;;2.85;0.85;;;12.10;71.40;;;;;;2135463;58;20994;-64
2023/11/08 01:08:44;;;;;;;2.85;0.95;;;12.10;71.30;;;;;;2131844;59;20966;-65
2023/11/08 01:11:10;;;;;;;2.22;0.90;;;12.00;71.20;;;;;;2130836;59;21834;-64
2023/11/08 01:13:36;;;;;;;2.30;0.80;;;12.00;71.20;;;;;;2130775;58;20978;-65
2023/11/08 01:16:08;;;;;;;5.15;0.80;;;12.00;71.30;;;;;;2137420;58;21033;-65
2023/11/08 01:18:34;;;;;;;2.17;0.85;;;12.00;71.20;;;;;;2138337;59;21073;-65
2023/11/08 01:21:01;;;;;;;2.60;0.90;;;12.00;71.20;;;;;;2331965;58;21022;-64
2023/11/08 01:23:27;;;;;;;3.35;1.10;;;12.00;71.10;;;;;;2331629;58;21030;-65
2023/11/08 01:25:54;;;;;;;3.47;1.00;;;12.00;71.10;;;;;;2130540;59;20986;-65
2023/11/08 01:28:21;;;;;;;2.05;0.85;;;12.00;71.20;;;;;;2129751;58;21013;-65
2023/11/08 01:30:48;;;;;;;1.08;0.50;;;11.90;71.00;;;;;;2129148;59;21071;-65
2023/11/08 01:33:14;;;;;;;1.87;0.70;;;11.90;71.10;;;;;;2129765;59;21086;-64
2023/11/08 01:35:43;;;;;;;2.67;1.05;;;11.90;71.10;;;;;;2130715;58;21067;-65
2023/11/08 01:38:12;;;;;;;2.12;0.88;;;11.90;71.70;;;;;;2332317;58;20970;-65
2023/11/08 01:40:38;;;;;;;3.62;0.93;;;11.90;71.00;;;;;;2337013;58;21167;-64
2023/11/08 01:43:05;;;;;;;3.22;0.68;;;11.90;71.10;;;;;;2129947;59;20965;-65
2023/11/08 01:45:34;;;;;;;3.27;0.63;;;11.80;71.00;;;;;;2138799;58;3055410;-65
2023/11/08 01:48:02;;;;;;;2.12;0.70;;;11.80;71.00;;;;;;2127534;59;21105;-65
2023/11/08 01:50:28;;;;;;;3.30;0.65;;;11.80;71.10;;;;;;2331368;58;20987;-65
2023/11/08 01:52:54;;;;;;;3.20;0.90;;;11.80;71.20;;;;;;2331105;58;20966;-65
2023/11/08 01:55:21;;;;;;;2.03;0.68;;;11.80;71.20;;;;;;2130251;59;20988;-65
2023/11/08 01:57:48;;;;;;;2.78;0.93;;;11.80;71.20;;;;;;2330887;58;20958;-65
2023/11/08 02:00:15;;;;;;;1.55;0.60;;;11.80;71.30;;;;;;2336019;58;21001;-65
2023/11/08 02:02:41;;;;;;;2.10;0.70;;;11.80;71.30;;;;;;2336285;59;21144;-65
2023/11/08 02:05:08;;;;;;;5.82;0.90;;;11.80;71.40;;;;;;2131593;59;20977;-65
2023/11/08 02:07:37;;;;;;;2.40;0.77;;;11.80;71.40;;;;;;2130827;58;21022;-64
2023/11/08 02:10:04;;;;;;;2.40;0.70;;;11.80;71.30;;;;;;2331369;58;20962;-65
2023/11/08 02:12:32;;;;;;;4.03;0.80;;;11.80;71.30;;;;;;2130057;59;21034;-65
2023/11/08 02:15:05;;;;;;;2.92;1.00;;;11.80;71.40;;;;;;2331794;58;21050;-65
2023/11/08 02:17:32;;;;;;;2.50;0.73;;;11.80;71.10;;;;;;2129724;59;20998;-64
2023/11/08 02:19:58;;;;;;;2.55;0.80;;;11.80;71.40;;;;;;2130675;59;20939;-65
2023/11/08 02:22:25;;;;;;;2.40;0.70;;;11.80;71.40;;;;;;2316389;59;21002;-65
2023/11/08 02:24:51;;;;;;;2.00;0.70;;;11.80;71.40;;;;;;2333920;58;21559;-65
2023/11/08 02:27:17;;;;;;;2.97;0.80;;;11.80;71.40;;;;;;2138013;59;21013;-65
2023/11/08 02:29:44;;;;;;;1.92;0.60;;;11.80;71.40;;;;;;2130616;58;21110;-65
2023/11/08 02:32:10;;;;;;;1.35;0.55;;;11.80;71.40;;;;;;2334002;58;21916;-65
2023/11/08 02:34:36;;;;;;;5.82;0.80;;;11.80;71.40;;;;;;2132168;58;20981;-65
2023/11/08 02:37:02;;;;;;;2.42;0.70;;;11.80;71.40;;;;;;2333146;58;21848;-65
2023/11/08 02:39:29;;;;;;;1.55;0.60;;;11.80;71.40;;;;;;2335917;58;21047;-65
2023/11/08 02:41:55;;;;;;;1.70;0.60;;;11.80;71.40;;;;;;2331413;58;20962;-65
2023/11/08 02:44:21;;;;;;;4.12;0.80;;;11.80;71.50;;;;;;2330970;58;21669;-65
2023/11/08 02:46:48;;;;;;;3.33;1.00;;;11.80;71.50;;;;;;2129725;59;20973;-65
2023/11/08 02:49:14;;;;;;;2.37;0.80;;;11.80;71.50;;;;;;2130338;59;20954;-66
2023/11/08 02:51:42;;;;;;;1.90;0.57;;;11.80;71.50;;;;;;2332196;57;21025;-65
2023/11/08 02:54:09;;;;;;;3.20;1.10;;;11.80;71.50;;;;;;2139364;59;20958;-65
2023/11/08 02:56:40;;;;;;;1.77;0.62;;;11.80;71.40;;;;;;2334047;58;20986;-66
2023/11/08 02:59:08;;;;;;;2.22;0.60;;;11.90;71.40;;;;;;2130136;59;21507;-64
2023/11/08 03:01:34;;;;;;;2.67;0.80;;;11.80;71.50;;;;;;2331887;58;20974;-65
2023/11/08 03:04:01;;;;;;;2.67;0.98;;;11.80;71.40;;;;;;2138616;59;20993;-64
2023/11/08 03:06:28;;;;;;;1.77;0.80;;;11.90;71.50;;;;;;2115638;60;21045;-65
2023/11/08 03:08:56;;;;;;;2.40;0.75;;;11.90;71.50;;;;;;2129233;59;20942;-65
2023/11/08 03:11:23;;;;;;;2.00;0.60;;;11.90;71.50;;;;;;2129788;58;20990;-64
2023/11/08 03:13:51;;;;;;;3.08;0.73;;;11.90;71.60;;;;;;2137595;59;21065;-66
2023/11/08 03:16:17;;;;;;;3.47;1.08;;;11.90;71.60;;;;;;2332244;58;21119;-65
2023/11/08 03:18:45;;;;;;;2.03;0.70;;;11.90;71.50;;;;;;2334542;58;21583;-64
2023/11/08 03:21:11;;;;;;;2.83;0.88;;;11.90;71.50;;;;;;2309049;58;21056;-65
2023/11/08 03:23:40;;;;;;;4.35;1.12;;;11.90;71.50;;;;;;2331068;58;20974;-65
2023/11/08 03:26:06;;;;;;;1.92;0.70;;;11.90;71.50;;;;;;2130206;59;21643;-65
2023/11/08 03:28:32;;;;;;;2.62;0.80;;;11.90;71.50;;;;;;2331135;58;21011;-66
2023/11/08 03:30:59;;;;;;;2.08;0.65;;;11.90;71.50;;;;;;2331121;58;20938;-65
2023/11/08 03:33:26;;;;;;;1.87;0.60;;;11.90;71.50;;;;;;2129902;59;25454;-65
2023/11/08 03:35:52;;;;;;;3.03;0.60;;;12.00;71.60;;;;;;2331433;58;21050;-64
2023/11/08 03:38:18;;;;;;;1.33;0.57;;;12.00;71.50;;;;;;2129518;59;20989;-65
2023/11/08 03:40:46;;;;;;;2.72;0.90;;;12.00;71.40;;;;;;2129788;59;22308;-66
2023/11/08 03:43:12;;;;;;;1.98;0.70;;;12.00;71.40;;;;;;2135216;59;21026;-65
2023/11/08 03:45:39;;;;;;;2.67;0.90;;;12.00;71.40;;;;;;2335406;59;21037;-66
2023/11/08 03:48:06;;;;;;;3.10;0.80;;;12.00;71.40;;;;;;2331890;58;21054;-64
2023/11/08 03:50:32;;;;;;;3.25;0.93;;;12.00;71.30;;;;;;2331675;58;20965;-65
2023/11/08 03:52:59;;;;;;;3.33;0.90;;;12.00;71.20;;;;;;2331087;58;21352;-65
2023/11/08 03:55:26;;;;;;;3.03;0.80;;;12.00;71.10;;;;;;2129714;58;21447;-65
2023/11/08 03:57:55;;;;;;;3.17;0.90;;;12.00;71.10;;;;;;2130041;59;20985;-65
2023/11/08 04:00:25;;;;;;;3.30;0.70;;;12.00;71.10;;;;;;2130932;58;21009;-66
2023/11/08 04:02:51;;;;;;;2.22;0.60;;;11.90;71.00;;;;;;2130385;59;21068;-65
2023/11/08 04:05:18;;;;;;;2.67;0.85;;;11.90;71.00;;;;;;2331619;58;20973;-65
2023/11/08 04:07:44;;;;;;;2.50;0.70;;;12.00;71.20;;;;;;2331229;58;21077;-65
2023/11/08 04:10:11;;;;;;;2.45;0.73;;;11.90;71.10;;;;;;2135433;58;21961;-65
2023/11/08 04:12:37;;;;;;;1.83;0.70;;;11.90;71.10;;;;;;2133692;59;21138;-65
2023/11/08 04:15:04;;;;;;;1.27;0.50;;;11.90;71.10;;;;;;2331386;58;20990;-66
2023/11/08 04:17:32;;;;;;;2.22;0.80;;;11.90;71.20;;;;;;2333156;58;21085;-66
2023/11/08 04:19:58;;;;;;;2.03;0.70;;;11.90;71.20;;;;;;2134252;58;21025;-66
2023/11/08 04:22:25;;;;;;;2.70;0.70;;;11.90;71.20;;;;;;2330978;58;21045;-66
2023/11/08 04:24:51;;;;;;;1.87;0.70;;;11.90;71.30;;;;;;2127993;59;21796;-65
2023/11/08 04:27:18;;;;;;;1.10;0.52;;;11.90;71.30;;;;;;2332372;58;20970;-65
2023/11/08 04:29:45;;;;;;;2.40;0.60;;;11.90;71.20;;;;;;2129944;58;21030;-64
2023/11/08 04:32:11;;;;;;;1.62;0.60;;;11.90;71.30;;;;;;2130172;59;21514;-65
2023/11/08 04:34:37;;;;;;;2.20;0.80;;;11.90;72.00;;;;;;2331504;58;21022;-65
2023/11/08 04:37:06;;;;;;;2.40;0.60;;;11.90;71.30;;;;;;2130686;58;20994;-65
2023/11/08 04:39:32;;;;;;;2.75;0.57;;;11.90;71.30;;;;;;2129804;59;20958;-65
2023/11/08 04:41:58;;;;;;;1.55;0.55;;;12.00;71.50;;;;;;2130319;59;20974;-65
2023/11/08 04:44:25;;;;;;;2.60;0.65;;;11.90;71.40;;;;;;2130335;59;21448;-65
2023/11/08 04:46:53;;;;;;;2.37;0.60;;;11.90;71.30;;;;;;2331824;58;20986;-65
2023/11/08 04:49:28;;;;;;;1.98;0.77;;;11.90;71.30;;;;;;2133813;59;21034;-65
2023/11/08 04:51:54;;;;;;;3.00;0.70;;;12.00;71.30;;;;;;2131579;59;20958;-66
2023/11/08 04:54:21;;;;;;;2.25;0.70;;;11.90;71.20;;;;;;2332361;58;21013;-65
2023/11/08 04:56:47;;;;;;;2.28;0.68;;;12.00;71.30;;;;;;2133839;58;21256;-65
2023/11/08 04:59:14;;;;;;;2.62;0.60;;;12.00;71.30;;;;;;2338084;59;20970;-66
2023/11/08 05:01:43;;;;;;;1.98;0.60;;;12.00;71.30;;;;;;2133617;59;20994;-65
2023/11/08 05:04:10;;;;;;;3.58;0.75;;;12.00;71.30;;;;;;2333958;58;21400;-65
2023/11/08 05:06:36;;;;;;;2.12;0.55;;;12.10;71.30;;;;;;2335826;58;21053;-65
2023/11/08 05:09:03;;;;;;;4.87;0.70;;;12.00;71.10;;;;;;2335172;58;21014;-65
2023/11/08 05:11:29;;;;;;;2.28;0.68;;;11.90;70.90;;;;;;2133870;59;21502;-65
2023/11/08 05:13:56;;;;;;;2.15;0.77;;;11.90;70.90;;;;;;2331789;58;21033;-65
2023/11/08 05:16:22;;;;;;;2.20;0.70;;;12.00;71.00;;;;;;2331571;58;21875;-65
2023/11/08 05:18:52;;;;;;;3.10;0.73;;;11.90;70.90;;;;;;2129823;58;20993;-66
2023/11/08 05:21:20;;;;;;;2.37;0.62;;;11.90;70.80;;;;;;2130043;58;21482;-65
2023/11/08 05:23:46;;;;;;;2.67;0.82;;;11.90;70.90;;;;;;2129023;58;21010;-65
2023/11/08 05:26:12;;;;;;;1.83;0.70;;;11.90;70.90;;;;;;2135351;59;21058;-66
2023/11/08 05:28:39;;;;;;;1.83;0.60;;;11.90;70.90;;;;;;2334072;58;21475;-66
2023/11/08 05:31:06;;;;;;;3.62;0.95;;;11.90;70.90;;;;;;2130268;58;21054;-65
2023/11/08 05:33:33;;;;;;;3.45;1.00;;;11.90;70.90;;;;;;2130259;59;21014;-65
2023/11/08 05:35:59;;;;;;;4.00;1.40;;;11.90;70.90;;;;;;2331686;58;20966;-65
2023/11/08 05:38:26;;;;;;;4.10;1.70;;;11.80;70.90;;;;;;2331980;58;20978;-65
2023/11/08 05:40:53;;;;;;;4.75;1.62;;;11.80;70.90;;;;;;2129994;59;20985;-65
2023/11/08 05:43:21;;;;;;;3.33;1.40;;;11.80;71.00;;;;;;2332015;58;20997;-65
2023/11/08 05:45:47;;;;;;;2.62;1.08;;;11.80;71.00;;;;;;2331358;58;22212;-65
2023/11/08 05:48:14;;;;;;;2.47;0.88;;;11.90;71.10;;;;;;2331192;58;20989;-65
2023/11/08 05:50:43;;;;;;;3.55;0.90;;;11.80;71.10;;;;;;2130218;59;21034;-66
2023/11/08 05:53:09;;;;;;;3.45;0.90;;;11.80;71.20;;;;;;2141719;59;21009;-65
2023/11/08 05:55:39;;;;;;;1.50;0.75;;;11.80;71.10;;;;;;2130118;59;21066;-64
2023/11/08 05:58:05;;;;;;;2.22;0.70;;;11.80;71.20;;;;;;2130480;59;20990;-65
2023/11/08 06:00:31;;;;;;;3.95;0.93;;;11.80;71.20;;;;;;2130123;59;21524;-65
2023/11/08 06:02:58;;;;;;;2.95;0.90;;;11.80;71.20;;;;;;2331118;58;21018;-65
2023/11/08 06:05:27;;;;;;;2.50;0.95;;;11.90;71.30;;;;;;2135654;58;21034;-66
2023/11/08 06:07:55;;;;;;;3.90;1.10;;;11.90;71.20;;;;;;2334238;57;21540;-65
2023/11/08 06:10:22;;;;;;;2.05;0.80;;;11.90;71.30;;;;;;2137064;59;21033;-66
2023/11/08 06:12:48;;;;;;;4.40;1.23;;;11.90;71.20;;;;;;2330772;58;21522;-65
2023/11/08 06:15:14;;;;;;;2.62;1.08;;;11.90;71.30;;;;;;2130029;59;20934;-65
2023/11/08 06:17:40;;;;;;;3.37;1.10;;;11.90;71.30;;;;;;2129513;59;21462;-64
2023/11/08 06:20:09;;;;;;;2.80;1.00;;;11.90;71.30;;;;;;2331054;58;21035;-65
2023/11/08 06:22:35;;;;;;;2.95;1.00;;;11.90;71.40;;;;;;2332848;58;21017;-65
2023/11/08 06:25:02;;;;;;;1.95;0.80;;;11.90;71.40;;;;;;2334897;58;21009;-65
2023/11/08 06:27:28;;;;;;;2.37;0.68;;;11.90;71.40;;;;;;2129705;59;21034;-65
2023/11/08 06:29:55;;;;;;;4.62;1.02;;;11.90;71.50;;;;;;2330401;58;21042;-66
2023/11/08 06:32:21;;;;;;;2.33;0.90;;;11.90;71.50;;;;;;2332872;58;21543;-65
2023/11/08 06:34:48;;;;;;;4.10;1.10;;;11.90;71.40;;;;;;2129204;59;21057;-65
2023/11/08 06:37:14;;;;;;;3.08;1.20;;;12.00;71.50;;;;;;2133721;58;21005;-65
2023/11/08 06:39:43;;;;;;;2.22;0.98;;;12.00;71.60;;;;;;2131509;58;20986;-65
2023/11/08 06:42:12;;;;;;;2.62;0.90;;;12.00;71.60;;;;;;2328772;58;21189;-65
2023/11/08 06:44:38;;;;;;;2.35;0.80;;;12.00;71.50;;;;;;2119054;59;21050;-64
2023/11/08 06:47:05;;;;;;;2.47;0.90;;;12.00;71.50;;;;;;2130101;59;20990;-64
2023/11/08 06:49:31;;;;;;;2.72;0.88;;;12.00;71.50;;;;;;2332276;58;20958;-65
2023/11/08 06:51:57;;;;;;;3.03;1.00;;;12.00;71.50;;;;;;2331648;58;21489;-66
2023/11/08 06:54:24;;;;;;;2.42;0.90;;;12.00;71.50;;;;;;2133978;59;21055;-65
2023/11/08 06:56:50;;;;;;;2.53;0.73;;;12.00;71.50;;;;;;2330482;58;20991;-65
2023/11/08 06:59:16;;;;;;;2.33;0.80;;;12.10;71.70;;;;;;2130236;59;20929;-65
2023/11/08 07:01:43;;;;;;;2.30;0.80;;;12.00;71.50;;;;;;2332024;58;20974;-65
2023/11/08 07:04:11;;;;;;;2.42;0.80;;;12.10;71.60;;;;;;2337712;59;21020;-65
2023/11/08 07:06:37;;;;;;;3.90;1.10;;;12.10;71.60;;;;;;2131417;59;20951;-65
2023/11/08 07:09:04;;;;;;;2.37;0.80;;;12.10;71.60;;;;;;2331601;58;21008;-65
2023/11/08 07:11:30;;;;;;;3.53;0.62;;;12.10;71.60;;;;;;2137713;59;21873;-65
2023/11/08 07:13:58;;;;;;;2.87;0.70;;;12.10;71.70;;;;;;2331658;58;20993;-65
2023/11/08 07:16:25;;;;;;;4.15;1.02;;;12.20;71.80;;;;;;2131624;58;21361;-65
2023/11/08 07:18:53;;;;;;;2.17;0.70;;;12.20;71.70;;;;;;2331108;58;20997;-65
2023/11/08 07:21:20;;;;;;;2.08;0.80;;;12.20;72.50;;;;;;2129796;58;21022;-65
2023/11/08 07:23:51;;;;;;;2.35;0.80;;;12.30;71.90;;;;;;2128465;59;21565;-66
2023/11/08 07:26:19;;;;;;;2.83;1.00;;;12.20;71.80;;;;;;2135572;59;20993;-65
2023/11/08 07:28:47;;;;;;;2.33;0.80;;;12.20;71.80;;;;;;2134952;59;20986;-65
2023/11/08 07:31:13;;;;;;;2.62;0.95;;;12.20;71.80;;;;;;2335534;58;21013;-65
2023/11/08 07:33:40;;;;;;;1.95;0.77;;;12.30;71.90;;;;;;2131073;59;20958;-66
2023/11/08 07:36:06;;;;;;;3.50;0.80;;;12.30;72.00;;;;;;2129600;59;21002;-66
2023/11/08 07:38:33;;;;;;;3.00;0.70;;;12.30;71.90;;;;;;2332720;58;21471;-65
2023/11/08 07:41:01;;;;;;;1.87;0.75;;;12.40;72.00;;;;;;2128684;59;20972;-65
2023/11/08 07:43:28;;;;;;;1.70;0.73;;;12.40;72.00;;;;;;2331777;58;21022;-65
2023/11/08 07:45:55;;;;;;;2.15;0.60;;;12.40;72.10;;;;;;2331616;58;21020;-65
2023/11/08 07:48:22;;;;;;;2.70;0.70;;;12.40;72.10;;;;;;2131250;59;21125;-65
2023/11/08 07:50:52;;;;;;;1.67;0.68;;;12.40;72.10;;;;;;2331313;58;20981;-65
2023/11/08 07:53:19;;;;;;;5.20;0.80;;;12.40;72.10;;;;;;2336030;58;21610;-66
2023/11/08 07:55:46;;;;;;;1.98;0.70;;;12.50;72.10;;;;;;2131448;59;20993;-65
2023/11/08 07:58:12;;;;;;;2.10;0.70;;;12.50;72.10;;;;;;2130148;59;21041;-65
2023/11/08 08:00:42;;;;;;;1.48;0.60;;;12.50;72.10;;;;;;2131144;59;20966;-65
2023/11/08 08:03:09;;;;;;;2.50;0.80;;;12.60;72.20;;;;;;2129682;59;21450;-64
2023/11/08 08:05:36;;;;;;;1.65;0.70;;;12.60;72.10;;;;;;2332119;58;21073;-66
2023/11/08 08:08:03;;;;;;;3.50;0.70;;;12.60;72.10;;;;;;2129037;59;21109;-65
2023/11/08 08:10:32;;;;;;;2.40;0.68;;;12.60;72.00;;;;;;2334826;58;21002;-65
2023/11/08 08:12:58;;;;;;;3.08;0.80;;;12.60;72.00;;;;;;2131787;59;21195;-65
2023/11/08 08:15:24;;;;;;;2.08;0.68;;;12.70;72.10;;;;;;2330798;58;21074;-66
2023/11/08 08:17:51;;;;;;;4.50;1.10;;;12.70;72.10;;;;;;2129172;59;21042;-66
2023/11/08 08:20:18;;;;;;;1.50;0.60;;;12.70;72.80;;;;;;2330061;58;21586;-66
2023/11/08 08:22:44;;;;;;;2.70;0.70;;;12.70;72.00;;;;;;2129287;59;21046;-65
2023/11/08 08:25:11;;;;;;;1.92;0.57;;;12.70;71.90;;;;;;2132622;59;21019;-67
2023/11/08 08:27:40;;;;;;;1.83;0.70;;;12.80;72.10;;;;;;2134365;59;21683;-65
2023/11/08 08:30:11;;;;;;;2.42;0.70;;;12.80;72.10;;;;;;2330361;58;21093;-66
2023/11/08 08:32:39;;;;;;;2.62;0.75;;;12.80;72.00;;;;;;2134061;59;21098;-66
2023/11/08 10:33:10;;;;;;;2.25;0.70;;;14.60;71.80;;;;;;2332781;58;21013;-66
2023/11/08 10:35:41;;;;;;;1.73;0.65;;;14.60;72.30;;;;;;2136042;59;21046;-65
2023/11/08 10:38:10;;;;;;;1.92;0.60;;;14.60;73.30;;;;;;2333249;58;21001;-64
2023/11/08 10:40:36;;;;;;;1.58;0.50;;;14.70;72.60;;;;;;2331349;58;20993;-65
2023/11/08 10:43:04;;;;;;;1.17;0.52;;;14.70;72.80;;;;;;2330586;58;20985;-66
2023/11/08 10:45:33;;;;;;;3.25;0.70;;;14.80;72.70;;;;;;2332030;58;21599;-64
2023/11/08 10:48:00;;;;;;;4.00;0.90;;;14.80;72.50;;;;;;2130199;59;20986;-66
2023/11/08 10:50:27;;;;;;;2.50;0.82;;;14.80;72.60;;;;;;2331730;58;21034;-66
2023/11/08 10:52:53;;;;;;;3.33;0.90;;;14.90;72.60;;;;;;2332180;58;21038;-65
2023/11/08 10:55:25;;;;;;;1.80;0.70;;;14.90;72.40;;;;;;2331273;58;21832;-67
2023/11/08 10:57:53;;;;;;;2.57;0.80;;;14.90;72.40;;;;;;2332010;58;21038;-65
2023/11/08 11:00:22;;;;;;;3.00;1.08;;;15.00;72.40;;;;;;2130043;59;21075;-66
2023/11/08 11:02:55;;;;;;;3.85;0.85;;;15.00;72.30;;;;;;2332193;58;21001;-65
2023/11/08 11:05:27;;;;;;;2.53;0.70;;;15.10;71.80;;;;;;2332210;58;20966;-66
2023/11/08 11:07:54;;;;;;;2.33;0.80;;;15.10;72.20;;;;;;2331836;58;21085;-65
2023/11/08 11:10:21;;;;;;;2.85;0.75;;;15.20;72.30;;;;;;2331181;58;20977;-66
2023/11/08 11:13:13;;;;;;;2.17;0.60;;;15.20;72.20;;;;;;2332104;58;20983;-65
2023/11/08 11:16:32;;;;;;;1.92;0.68;;;15.20;71.70;;;;;;2130985;59;20970;-65
2023/11/08 11:19:04;;;;;;;2.10;0.75;;;15.20;70.80;;;;;;2332388;58;20990;-65
2023/11/08 11:21:39;;;;;;;3.30;0.70;;;15.30;71.90;;;;;;2130193;59;21077;-65
2023/11/08 11:24:34;;;;;;;2.65;0.70;;;15.30;71.70;;;;;;2330804;58;21038;-65
2023/11/08 11:27:00;;;;;;;1.48;0.57;;;15.30;70.60;;;;;;2126436;59;21011;-64
2023/11/08 11:29:29;;;;;;;2.33;0.62;;;15.30;71.90;;;;;;2127872;59;21001;-65
2023/11/08 11:31:56;;;;;;;2.20;0.70;;;15.40;72.00;;;;;;2123333;59;21431;-65
2023/11/08 11:34:49;;;;;;;2.33;0.60;;;15.40;71.70;;;;;;2129468;58;20986;-65
2023/11/08 11:37:22;;;;;;;2.78;0.80;;;15.40;70.90;;;;;;2133003;59;21025;-66
2023/11/08 11:40:12;;;;;;;2.40;0.70;;;15.40;71.40;;;;;;2331380;58;20958;-66
2023/11/08 11:42:44;;;;;;;1.52;0.50;;;15.40;69.90;;;;;;2134672;59;21057;-66
2023/11/08 11:45:10;;;;;;;1.23;0.60;;;15.40;71.30;;;;;;2134253;59;21006;-65
2023/11/08 11:47:41;;;;;;;1.87;0.62;;;15.40;71.20;;;;;;2133168;59;21127;-65
2023/11/08 11:50:11;;;;;;;1.48;0.60;;;15.40;71.10;;;;;;2332958;58;22013;-65
2023/11/08 11:52:38;;;;;;;3.65;0.80;;;15.40;71.10;;;;;;2137260;59;21094;-65
2023/11/08 11:55:07;;;;;;;3.25;0.90;;;15.40;71.20;;;;;;2125831;59;21673;-65
2023/11/08 11:57:34;;;;;;;2.37;0.90;;;15.50;71.20;;;;;;2331422;58;21062;-65
2023/11/08 12:00:14;;;;;;;2.85;0.90;;;15.50;71.30;;;;;;2133254;59;20986;-64
2023/11/08 12:02:40;;;;;;;2.12;0.85;;;15.50;70.70;;;;;;2137387;59;21918;-65
2023/11/08 12:05:07;;;;;;;2.60;1.02;;;15.50;71.50;;;;;;2328952;59;21030;-65
2023/11/08 12:07:36;;;;;;;3.17;0.90;;;15.50;71.50;;;;;;2132670;59;21065;-65
2023/11/08 12:10:10;;;;;;;1.70;0.68;;;15.50;71.40;;;;;;2129113;58;20969;-65
2023/11/08 12:12:38;;;;;;;2.00;0.70;;;15.50;71.40;;;;;;2135427;58;21479;-65
2023/11/08 12:15:20;;;;;;;2.70;0.93;;;15.50;71.30;;;;;;2132413;59;21038;-64
2023/11/08 12:17:50;;;;;;;1.90;0.80;;;15.60;70.50;;;;;;2335667;58;21862;-65
2023/11/08 12:20:20;;;;;;;2.17;0.90;;;15.60;71.40;;;;;;2129879;59;20998;-64
2023/11/08 12:22:47;;;;;;;2.12;0.88;;;15.60;71.30;;;;;;2137733;58;21066;-65
2023/11/08 12:25:16;;;;;;;1.98;0.65;;;15.70;71.50;;;;;;2136259;58;21125;-65
2023/11/08 12:27:42;;;;;;;1.80;0.60;;;15.60;71.40;;;;;;2334659;58;20986;-64
2023/11/08 12:30:09;;;;;;;2.17;1.00;;;15.70;71.60;;;;;;2129539;58;21029;-66
2023/11/08 12:32:38;;;;;;;1.87;0.70;;;15.70;71.60;;;;;;2331145;58;21849;-65
2023/11/08 12:35:05;;;;;;;1.83;0.70;;;15.70;71.50;;;;;;2331716;58;20942;-66
2023/11/08 12:37:33;;;;;;;1.85;0.65;;;15.70;71.50;;;;;;2136681;59;20961;-65
2023/11/08 12:40:22;;;;;;;2.08;0.70;;;15.80;71.80;;;;;;2333313;58;20993;-65
2023/11/08 12:42:48;;;;;;;1.75;0.70;;;15.80;70.30;;;;;;2334873;58;21085;-64
2023/11/08 12:45:30;;;;;;;1.98;0.75;;;15.90;72.10;;;;;;2130261;59;21009;-65
2023/11/08 12:48:09;;;;;;;1.80;0.57;;;15.90;71.10;;;;;;2138710;58;21559;-65
2023/11/08 12:50:47;;;;;;;4.07;1.12;;;16.00;71.10;;;;;;2334952;58;20974;-66
2023/11/08 12:53:13;;;;;;;2.90;1.23;;;16.10;71.10;;;;;;2133851;58;21860;-66
2023/11/08 12:55:40;;;;;;;1.75;0.77;;;16.10;71.90;;;;;;2129883;58;21053;-66
2023/11/08 12:58:27;;;;;;;1.80;0.57;;;16.10;71.80;;;;;;2331782;58;21031;-66
2023/11/08 13:00:53;;;;;;;1.70;0.68;;;16.20;70.70;;;;;;2331010;58;21046;-65
2023/11/08 13:03:20;;;;;;;1.87;0.60;;;16.20;71.60;;;;;;2138567;59;21121;-65
2023/11/08 13:05:49;;;;;;;1.52;0.57;;;16.20;71.30;;;;;;2134748;58;21412;-65
2023/11/08 13:08:16;;;;;;;2.65;0.62;;;16.20;70.80;;;;;;2331457;58;21529;-63
2023/11/08 13:10:43;;;;;;;1.52;0.60;;;16.30;71.30;;;;;;2335025;57;20990;-66
2023/11/08 13:13:09;;;;;;;2.53;0.65;;;16.30;71.30;;;;;;2338705;59;21430;-65
2023/11/08 13:15:36;;;;;;;2.67;0.80;;;16.30;71.20;;;;;;2131670;59;21773;-66
2023/11/08 13:18:03;;;;;;;1.70;0.45;;;16.30;71.30;;;;;;2333428;58;21058;-66
2023/11/08 13:20:33;;;;;;;1.90;0.60;;;16.30;71.40;;;;;;2132180;58;21412;-65
2023/11/08 13:23:01;;;;;;;1.58;0.65;;;16.30;71.50;;;;;;2330044;58;21514;-66
2023/11/08 13:25:28;;;;;;;0.90;0.40;;;16.40;71.50;;;;;;2331840;58;21864;-66
2023/11/08 13:27:54;;;;;;;2.08;0.75;;;16.40;71.40;;;;;;2331096;58;20994;-67
2023/11/08 13:30:24;;;;;;;1.52;0.52;;;16.40;71.40;;;;;;2129938;59;20985;-66
2023/11/08 13:32:50;;;;;;;2.47;0.73;;;16.40;71.20;;;;;;2330972;58;20970;-66
2023/11/08 13:35:17;;;;;;;2.00;0.62;;;16.50;71.20;;;;;;2330115;57;21490;-65
2023/11/08 13:37:43;;;;;;;2.05;0.50;;;16.50;71.10;;;;;;2133666;58;21156;-65
2023/11/08 13:40:10;;;;;;;1.92;0.80;;;16.50;70.90;;;;;;2136782;59;21013;-65
2023/11/08 13:42:39;;;;;;;1.27;0.55;;;16.50;70.90;;;;;;2336542;58;21067;-66
2023/11/08 13:45:07;;;;;;;2.05;0.73;;;16.50;70.80;;;;;;2133820;59;21548;-65
2023/11/08 13:47:39;;;;;;;2.50;0.65;;;16.50;70.70;;;;;;2129925;58;20973;-66
2023/11/08 13:50:06;;;;;;;2.58;0.70;;;16.50;70.90;;;;;;2334669;59;20974;-65
2023/11/08 13:52:32;;;;;;;3.00;1.10;;;16.50;70.90;;;;;;2332055;58;21018;-66
2023/11/08 13:54:59;;;;;;;5.35;2.42;;;16.50;71.00;;;;;;2332964;58;21009;-66
2023/11/08 13:57:26;;;;;;;5.28;1.85;;;16.50;71.10;;;;;;2333901;58;21076;-65
2023/11/08 13:59:52;;;;;;;3.60;1.48;;;16.60;71.10;;;;;;2331748;58;21048;-65
2023/11/08 14:02:20;;;;;;;2.58;1.10;;;16.60;70.90;;;;;;2331095;58;20989;-65
2023/11/08 14:04:47;;;;;;;3.15;1.27;;;16.60;70.70;;;;;;2137150;58;21055;-65
2023/11/08 14:07:14;;;;;;;3.67;1.35;;;16.60;70.60;;;;;;2331566;58;21005;-65
2023/11/08 14:09:43;;;;;;;3.08;1.30;;;16.60;70.50;;;;;;2335531;58;20994;-66
2023/11/08 14:12:10;;;;;;;2.60;1.05;;;16.50;70.30;;;;;;2130705;58;21002;-65
2023/11/08 14:14:38;;;;;;;2.65;0.90;;;16.50;70.70;;;;;;2136562;58;21068;-66
2023/11/08 14:17:05;;;;;;;3.15;1.02;;;16.50;70.60;;;;;;2130519;59;20978;-65
2023/11/08 14:19:31;;;;;;;2.42;0.90;;;16.50;70.80;;;;;;2334496;58;21063;-64
2023/11/08 14:21:58;;;;;;;3.10;0.70;;;16.60;71.10;;;;;;2137597;59;21140;-66
2023/11/08 14:24:24;;;;;;;3.05;0.80;;;16.60;71.10;;;;;;2130925;58;20958;-66
2023/11/08 14:26:51;;;;;;;2.78;0.75;;;16.60;70.90;;;;;;2128838;59;21343;-66
2023/11/08 14:29:17;;;;;;;1.85;0.68;;;16.60;70.90;;;;;;2331995;58;20982;-64
2023/11/08 14:31:47;;;;;;;1.92;0.70;;;16.60;70.90;;;;;;2332132;58;20961;-65
2023/11/08 14:34:14;;;;;;;2.45;0.90;;;16.60;70.90;;;;;;2134416;58;21090;-66
2023/11/08 14:36:40;;;;;;;1.87;0.73;;;16.60;70.80;;;;;;2131978;59;21007;-66
2023/11/08 14:39:09;;;;;;;2.53;0.80;;;16.60;70.60;;;;;;2133110;58;21530;-65
2023/11/08 14:41:35;;;;;;;1.77;0.73;;;16.70;70.50;;;;;;2335430;58;20978;-66
2023/11/08 14:44:02;;;;;;;2.53;0.70;;;16.60;70.30;;;;;;2137245;59;20977;-66
2023/11/08 14:46:28;;;;;;;2.47;0.90;;;16.60;70.20;;;;;;2330778;58;20993;-65
2023/11/08 14:48:55;;;;;;;5.72;0.85;;;16.60;70.20;;;;;;2132936;58;22063;-65
2023/11/08 14:51:23;;;;;;;2.42;0.80;;;16.60;70.00;;;;;;2129446;59;21893;-66